Gretna, FL

6:20 PM EDT on October 22, 2014 (GMT -0400)
Thomasville Municipal | Change Station
CLOSE
Current Station
Airport
Location: Thomasville,
Elevation: 262 ft
Nearby Weather Stations

Elev 262 ft 30.90 °N, 83.88 °W | Updated 25 minutes ago

Clear
Clear
73 °F
Feels Like 73 °F
N
7
Wind Variable Wind from North

Today
High -- | Low -- °F
--% Chance of Precip.
Yesterday
High -- | Low -- °F
Precip. -- in
7:45 AM 6:59 PM
Waning Crescent, 1% visible
Pressure 30.02 in
Visibility 10.0 miles
Clouds Clear
Dew Point 46 °F
Humidity 38%
Rainfall 0.00 in
Snow Depth Not available.
UV 1 out of 12
Pollen 5.10 out of 12
Air Quality Not available.
Flu Activity Local Activity
METAR KTVI 222155Z AUTO 01006KT 10SM CLR 23/08 A3002 RMK AO2

More Conditions Fewer Conditions

Pressure 30.02 in
Visibility 10.0 miles
Clouds Clear
Dew Point 46 °F
Humidity 38%
Rainfall 0.00 in
Snow Depth Not available.
UV 1 out of 12
Pollen 5.10 out of 12
Air Quality Not available.
Flu Activity Local Activity
METAR KTVI 222155Z AUTO 01006KT 10SM CLR 23/08 A3002 RMK AO2

More Conditions Fewer Conditions

10-Day Weather Forecast

Almanac

Astronomy

Oct. 22, 2014 Rise Set
Actual Time 7:45 AM EDT 6:59 PM EDT
Civil Twilight 7:21 AM EDT 7:24 PM EDT
Nautical Twilight 6:53 AM EDT 7:52 PM EDT
Astronomical Twilight 6:25 AM EDT 8:20 PM EDT
Moon 6:31 AM EDT 6:22 PM EDT
Length of Visible Light 12h 02m
Length of Day
11h 14m
Tomorrow will be 1m 43s shorter.
Waning Crescent, 1% of the Moon is Illuminated
Today
Waning Crescent
Oct 23
New
Oct 30
First Quarter
Nov 6
Full
Nov 14
Last Quarter

Today's Extremes

State Highs State Lows

Community

WunderPhotos

Upload Photos

1,764,064 photos uploaded!

WunderBlogs® & News

Nearby

Snow Depth

Station Depth Elevation
No new snow has been reported.

Earthquake Activity

City Distance Mag. Time & Date
No recent earthquake activity has been reported nearby.
Minimum magnitude displayed is 2.5.

Coastal Water Temperatures

Place Temperature
No Stations Reporting

Nearby Weather Stations